East Brookfield, Massachusetts
Current Conditions -  °F | °C
As of 1:12 AM on Sunday 21 Dec 2014 (Local Time) from KORH Reporting Station
Overcast Overcast  
Wind Chill: 21°   Ceiling: 3600
Heat Index: 28°   Visibility: 10mi
Dew Point: 24°   Wind: 7mph
Humidity: 85%   Direction: 30°NNE
Pressure: 30.23"   Gusts: NA
Location:  42.23°N, 72.05°W
Report Text: KORH 210612Z AUTO 03006KT 10SM SCT026 BKN036 OVC055 M02/M04 A3023 RMK AO2 T10221044
Loading
Personal Weather Stations






























Interactive Weather Map New forecast layout! Learn more

10-Day Weather Forecast

Advertisements
Track Severe Weather on mobile